Time;durP1;ratioP1;P1;durP2;ratioP2;P2;SDS_P1;SDS_P2;PMS_P1;PMS_P2;Temp;Humidity;BMP_temperature;BMP_pressure;BME280_temperature;BME280_humidity;BME280_pressure;Samples;Min_cycle;Max_cycle;Signal;HPM_P1;HPM_P2
2023/12/14 05:07:23;;;;;;;17.00;12.32;;;;;;;8.83;100.00;99352.56;5602900;31;81581;-56
2023/12/14 05:10:26;;;;;;;14.65;11.35;;;;;;;8.83;100.00;99352.56;5582796;31;33396;-57
2023/12/14 05:13:29;;;;;;;15.35;11.45;;;;;;;8.18;100.00;99370.09;5583449;31;34331;-56
2023/12/14 05:16:32;;;;;;;14.43;10.48;;;;;;;7.98;100.00;99365.84;5582907;31;33494;-56
2023/12/14 05:19:34;;;;;;;15.35;11.65;;;;;;;7.95;100.00;99360.28;5583051;31;33680;-56
2023/12/14 05:22:38;;;;;;;14.93;11.20;;;;;;;7.87;100.00;99374.25;5582797;32;34286;-56
2023/12/14 05:25:41;;;;;;;13.02;10.52;;;;;;;7.86;100.00;99376.13;5582993;31;33649;-57
2023/12/14 05:28:44;;;;;;;15.40;12.02;;;;;;;7.87;100.00;99385.72;5582928;31;33128;-56
2023/12/14 05:31:47;;;;;;;15.02;11.12;;;;;;;7.91;100.00;99386.75;5583481;32;33498;-57
2023/12/14 05:34:50;;;;;;;13.93;10.43;;;;;;;7.81;100.00;99391.37;5582915;31;33624;-57
2023/12/14 05:37:52;;;;;;;13.68;10.68;;;;;;;7.90;99.14;99392.34;5583060;32;33534;-56
2023/12/14 05:40:55;;;;;;;15.77;12.07;;;;;;;7.95;100.00;99409.09;5582899;31;33615;-56
2023/12/14 05:43:58;;;;;;;13.73;11.18;;;;;;;7.89;100.00;99410.25;5583085;32;33599;-57
2023/12/14 05:47:01;;;;;;;14.77;11.20;;;;;;;7.82;100.00;99409.81;5582783;31;33597;-56
2023/12/14 05:50:04;;;;;;;17.62;11.85;;;;;;;7.77;100.00;99425.84;5582930;31;33670;-56
2023/12/14 05:53:06;;;;;;;16.73;11.60;;;;;;;7.84;100.00;99430.84;5582977;32;33742;-56
2023/12/14 05:56:09;;;;;;;16.62;11.35;;;;;;;8.06;100.00;99430.31;5582825;31;33602;-57
2023/12/14 05:59:11;;;;;;;15.43;11.75;;;;;;;8.11;100.00;99432.91;5589827;31;34387;-56
2023/12/14 06:02:14;;;;;;;14.23;10.75;;;;;;;8.17;100.00;99442.44;5585620;31;34210;-56
2023/12/14 06:05:17;;;;;;;16.80;11.27;;;;;;;8.24;100.00;99446.38;5598826;31;33154;-56
2023/12/14 06:08:19;;;;;;;14.48;11.27;;;;;;;8.25;100.00;99441.81;5589616;31;34316;-56
2023/12/14 06:11:22;;;;;;;15.93;12.10;;;;;;;8.38;100.00;99451.81;5590946;31;33463;-57
2023/12/14 06:14:26;;;;;;;15.07;11.07;;;;;;;8.23;100.00;99451.97;5597503;31;33562;-57
2023/12/14 06:17:29;;;;;;;13.90;11.07;;;;;;;8.09;100.00;99451.09;5583548;31;33655;-56
2023/12/14 06:20:32;;;;;;;15.95;12.50;;;;;;;8.05;100.00;99450.88;5568893;32;33684;-57
2023/12/14 06:23:36;;;;;;;15.00;11.57;;;;;;;8.06;100.00;99449.00;5583202;31;33592;-56
2023/12/14 06:26:45;;;;;;;15.82;12.25;;;;;;;7.91;100.00;99456.12;5586071;31;34201;-56
2023/12/14 06:29:47;;;;;;;15.20;11.30;;;;;;;7.90;100.00;99464.41;5571683;31;34263;-56
2023/12/14 06:32:49;;;;;;;16.60;11.95;;;;;;;8.00;100.00;99469.63;5577906;31;32561;-56
2023/12/14 06:35:52;;;;;;;16.10;11.82;;;;;;;7.84;100.00;99470.88;5570011;31;32220;-57
2023/12/14 06:38:55;;;;;;;15.98;12.52;;;;;;;7.85;100.00;99475.94;5575478;31;33707;-56
2023/12/14 06:41:57;;;;;;;15.60;11.85;;;;;;;7.76;100.00;99467.75;5575148;31;33666;-56
2023/12/14 06:45:03;;;;;;;18.20;12.32;;;;;;;7.70;100.00;99476.09;5580089;31;34185;-56
2023/12/14 06:48:05;;;;;;;15.23;12.18;;;;;;;7.71;100.00;99477.66;5582329;31;33740;-57
2023/12/14 06:51:08;;;;;;;16.23;12.55;;;;;;;7.69;100.00;99483.31;5576765;31;33273;-56
2023/12/14 06:54:11;;;;;;;17.25;11.73;;;;;;;7.79;100.00;99493.06;5576040;31;34417;-56
2023/12/14 06:57:13;;;;;;;18.08;13.07;;;;;;;7.91;100.00;99488.16;5582370;31;33647;-56
2023/12/14 07:00:16;;;;;;;15.55;12.23;;;;;;;8.05;100.00;99493.59;5572203;31;33326;-57
2023/12/14 07:03:18;;;;;;;19.83;14.50;;;;;;;8.01;100.00;99497.87;5574241;31;34027;-56
2023/12/14 07:06:21;;;;;;;18.33;14.23;;;;;;;8.17;100.00;99499.31;5578751;31;33761;-56
2023/12/14 07:09:25;;;;;;;21.42;14.15;;;;;;;8.18;100.00;99508.91;5575010;31;33055;-57
2023/12/14 07:12:28;;;;;;;20.45;14.43;;;;;;;8.21;100.00;99516.38;5577268;31;33647;-57
2023/12/14 07:15:32;;;;;;;19.65;15.45;;;;;;;8.25;100.00;99524.59;5573904;31;34910;-57
2023/12/14 07:18:37;;;;;;;20.15;15.27;;;;;;;8.27;99.53;99538.44;5573971;31;33560;-57
2023/12/14 07:21:39;;;;;;;20.45;14.40;;;;;;;8.22;99.13;99531.28;5571411;31;33810;-57
2023/12/14 07:24:42;;;;;;;21.08;15.15;;;;;;;8.28;99.58;99537.38;5576376;31;33503;-57
2023/12/14 07:27:54;;;;;;;18.85;14.60;;;;;;;8.30;97.16;99542.41;5573097;31;33313;-56
2023/12/14 07:30:56;;;;;;;21.90;15.27;;;;;;;8.43;99.73;99549.78;5577556;31;34400;-56
2023/12/14 07:33:59;;;;;;;21.83;16.75;;;;;;;8.38;97.40;99553.31;5571594;31;34430;-56
2023/12/14 07:37:01;;;;;;;22.80;15.75;;;;;;;8.35;99.83;99551.19;5573251;31;34324;-56
2023/12/14 07:40:04;;;;;;;25.48;17.02;;;;;;;8.17;100.00;99555.38;5572727;31;33752;-56
2023/12/14 07:43:07;;;;;;;21.05;15.98;;;;;;;8.12;97.45;99551.97;5567328;31;33547;-57
2023/12/14 07:46:12;;;;;;;24.77;16.48;;;;;;;8.18;100.00;99566.87;5574761;31;32254;-56
2023/12/14 07:49:14;;;;;;;22.85;16.83;;;;;;;8.27;100.00;99570.47;5572383;31;34379;-57
2023/12/14 07:52:17;;;;;;;22.13;17.25;;;;;;;8.35;99.63;99569.09;5575196;31;33581;-58
2023/12/14 07:55:20;;;;;;;24.48;16.62;;;;;;;8.20;95.82;99584.16;5575554;31;33244;-56
2023/12/14 07:58:23;;;;;;;25.55;17.83;;;;;;;8.10;96.71;99586.16;5577946;31;33780;-56
2023/12/14 08:01:25;;;;;;;26.48;17.00;;;;;;;8.13;100.00;99586.38;5574976;31;34411;-56
2023/12/14 08:04:28;;;;;;;21.17;16.50;;;;;;;8.11;96.86;99588.56;5571947;31;34277;-57
2023/12/14 08:07:31;;;;;;;23.95;17.00;;;;;;;8.31;100.00;99594.75;5577581;31;34207;-56
2023/12/14 08:10:34;;;;;;;24.15;16.70;;;;;;;8.44;100.00;99602.91;5575599;31;33769;-57
2023/12/14 08:13:36;;;;;;;21.83;16.08;;;;;;;8.46;100.00;99602.63;5576418;31;34156;-58
2023/12/14 08:16:43;;;;;;;20.33;16.25;;;;;;;8.47;100.00;99607.66;5571830;31;33523;-57
2023/12/14 08:19:45;;;;;;;20.45;15.75;;;;;;;8.50;100.00;99616.19;5572086;31;33349;-56
2023/12/14 08:22:48;;;;;;;25.98;17.05;;;;;;;8.47;100.00;99621.03;5571513;31;34213;-56
2023/12/14 08:25:50;;;;;;;21.60;15.98;;;;;;;8.44;98.03;99626.97;5572603;31;34366;-58
2023/12/14 08:28:53;;;;;;;22.37;16.30;;;;;;;8.49;100.00;99627.97;5586018;31;33599;-57
2023/12/14 08:31:59;;;;;;;22.33;16.60;;;;;;;8.48;100.00;99632.53;5581984;31;33787;-57
2023/12/14 08:35:02;;;;;;;23.42;16.25;;;;;;;8.55;100.00;99634.84;5569857;31;33677;-57
2023/12/14 08:38:04;;;;;;;23.40;16.67;;;;;;;8.59;100.00;99644.69;5569944;31;33113;-57
2023/12/14 08:41:07;;;;;;;19.83;15.77;;;;;;;8.68;100.00;99636.84;5573168;31;34384;-58
2023/12/14 08:44:10;;;;;;;23.92;18.15;;;;;;;8.77;100.00;99639.66;5578590;31;33571;-58
2023/12/14 08:47:12;;;;;;;21.77;16.40;;;;;;;8.84;100.00;99643.59;5576004;31;33599;-58
2023/12/14 08:50:15;;;;;;;19.65;15.20;;;;;;;8.80;99.71;99639.09;5572690;31;33443;-57
2023/12/14 08:53:18;;;;;;;20.73;15.73;;;;;;;8.80;96.78;99642.56;5579281;31;33747;-58
2023/12/14 08:56:20;;;;;;;17.55;14.93;;;;;;;8.79;100.00;99642.84;5575146;31;33602;-57
2023/12/14 08:59:23;;;;;;;20.95;15.57;;;;;;;8.91;100.00;99648.59;5576918;31;32444;-58
2023/12/14 09:02:27;;;;;;;19.92;15.70;;;;;;;8.88;100.00;99655.28;5574173;31;34301;-57
2023/12/14 09:05:30;;;;;;;18.90;14.73;;;;;;;9.06;100.00;99661.75;5576810;31;33556;-57
2023/12/14 09:08:33;;;;;;;20.90;16.23;;;;;;;9.15;100.00;99670.72;5574150;31;33590;-58
2023/12/14 09:11:36;;;;;;;22.10;16.37;;;;;;;9.01;100.00;99675.19;5582171;31;32050;-57
2023/12/14 09:14:38;;;;;;;20.70;15.48;;;;;;;9.08;100.00;99666.81;5573634;31;34312;-58
2023/12/14 09:17:42;;;;;;;20.70;15.85;;;;;;;9.04;100.00;99668.44;5575834;31;33793;-58
2023/12/14 09:20:44;;;;;;;17.75;15.00;;;;;;;9.09;100.00;99668.41;5581600;31;33021;-57
2023/12/14 09:23:47;;;;;;;21.25;15.68;;;;;;;9.21;100.00;99670.66;5578103;31;33954;-58
2023/12/14 09:26:49;;;;;;;14.50;11.43;;;;;;;9.18;98.93;99680.84;5582357;31;34391;-58
2023/12/14 09:29:52;;;;;;;18.62;14.23;;;;;;;9.30;100.00;99669.72;5576907;31;33552;-58
2023/12/14 09:32:54;;;;;;;17.92;13.85;;;;;;;9.28;95.49;99674.56;5578004;31;33592;-57
2023/12/14 09:35:57;;;;;;;18.70;14.73;;;;;;;9.24;100.00;99680.75;5582250;31;33634;-58
2023/12/14 09:38:59;;;;;;;19.58;15.30;;;;;;;9.35;100.00;99685.69;5572623;31;33594;-57
2023/12/14 09:42:07;;;;;;;16.75;13.75;;;;;;;9.50;100.00;99691.91;5575191;31;33965;-57
2023/12/14 09:45:09;;;;;;;15.35;12.82;;;;;;;9.49;100.00;99693.00;5579025;31;33068;-57
2023/12/14 09:48:12;;;;;;;17.12;13.82;;;;;;;9.47;100.00;99700.50;5576823;31;33815;-58
2023/12/14 09:51:16;;;;;;;17.62;14.68;;;;;;;9.66;100.00;99706.66;5577083;31;33914;-57
2023/12/14 09:54:18;;;;;;;19.08;15.05;;;;;;;9.77;100.00;99701.97;5583048;31;32430;-58
2023/12/14 09:57:21;;;;;;;16.98;14.40;;;;;;;9.60;97.76;99694.44;5581191;31;33704;-58
2023/12/14 10:00:36;;;;;;;16.80;12.25;;;;;;;9.57;97.54;99705.72;5584024;31;34019;-57
2023/12/14 10:03:38;;;;;;;19.10;14.75;;;;;;;9.50;100.00;99698.06;5574273;31;33647;-58
2023/12/14 10:06:42;;;;;;;19.08;15.02;;;;;;;9.81;100.00;99711.78;5579926;31;33226;-58
2023/12/14 10:09:45;;;;;;;18.27;13.90;;;;;;;9.78;100.00;99714.25;5571918;31;32573;-58
2023/12/14 10:12:55;;;;;;;19.75;13.55;;;;;;;9.64;100.00;99725.69;5574472;31;34621;-58
2023/12/14 10:15:58;;;;;;;17.37;13.00;;;;;;;9.96;100.00;99731.38;5573409;31;33750;-57
2023/12/14 10:19:01;;;;;;;16.67;12.15;;;;;;;9.93;100.00;99731.97;5573254;31;34271;-57
2023/12/14 10:22:08;;;;;;;14.10;11.18;;;;;;;9.82;95.35;99732.13;5570999;31;31800;-58
2023/12/14 10:25:10;;;;;;;14.57;11.27;;;;;;;9.79;92.87;99735.38;5569204;31;34294;-57
2023/12/14 10:28:14;;;;;;;14.77;12.05;;;;;;;9.78;94.53;99739.16;5576960;31;33767;-58
2023/12/14 10:31:21;;;;;;;15.20;12.55;;;;;;;9.76;92.51;99735.94;5575489;31;34408;-57
2023/12/14 10:34:25;;;;;;;16.75;13.18;;;;;;;9.78;95.06;99749.84;5572596;31;33595;-57
2023/12/14 10:37:29;;;;;;;17.58;12.90;;;;;;;9.82;98.40;99742.03;5574940;31;33819;-58
2023/12/14 10:40:33;;;;;;;17.77;12.95;;;;;;;9.80;91.93;99746.88;5586692;31;34341;-58
2023/12/14 10:43:37;;;;;;;17.15;12.93;;;;;;;9.75;90.78;99745.06;5586104;31;34287;-57
2023/12/14 10:46:56;;;;;;;17.90;12.85;;;;;;;9.78;98.36;99755.19;5575679;31;33699;-57
2023/12/14 10:50:01;;;;;;;16.52;13.40;;;;;;;9.76;93.83;99761.94;5573817;31;34111;-58
2023/12/14 10:53:05;;;;;;;17.37;13.62;;;;;;;9.92;100.00;99759.84;5569255;31;33624;-58
2023/12/14 10:56:10;;;;;;;17.58;13.93;;;;;;;10.02;100.00;99762.34;5579381;31;33727;-58
2023/12/14 10:59:16;;;;;;;16.37;12.85;;;;;;;9.99;93.31;99766.41;5577330;31;33409;-57
2023/12/14 11:02:20;;;;;;;18.05;13.70;;;;;;;10.11;100.00;99765.97;5584659;31;33630;-57
2023/12/14 11:05:29;;;;;;;16.20;13.57;;;;;;;10.05;98.82;99775.94;5569155;31;34449;-58
2023/12/14 11:08:34;;;;;;;16.83;12.50;;;;;;;10.05;97.74;99775.94;5579934;31;32214;-58
2023/12/14 11:12:08;;;;;;;18.80;11.82;;;;;;;10.05;100.00;99786.66;5572421;31;33599;-58
2023/12/14 11:15:11;;;;;;;13.43;10.38;;;;;;;9.90;89.50;99786.91;5568241;31;33594;-58
2023/12/14 11:18:13;;;;;;;12.43;9.93;;;;;;;9.91;88.50;99785.03;5585336;31;33647;-58
2023/12/14 11:21:22;;;;;;;17.48;10.10;;;;;;;10.11;96.26;99784.72;5575717;31;33938;-57
2023/12/14 11:24:25;;;;;;;13.93;10.52;;;;;;;9.92;86.38;99773.22;5578138;31;33621;-57
2023/12/14 11:27:29;;;;;;;13.62;10.40;;;;;;;9.70;88.91;99779.97;5586351;31;34313;-57
2023/12/14 11:30:32;;;;;;;13.80;11.30;;;;;;;9.83;96.26;99787.28;5584968;31;33659;-57
2023/12/14 11:33:53;;;;;;;12.80;10.43;;;;;;;10.01;92.59;99782.97;5572712;31;33601;-57
2023/12/14 11:37:00;;;;;;;14.73;11.27;;;;;;;10.03;86.91;99794.22;5569748;31;33692;-57
2023/12/14 11:40:05;;;;;;;14.45;11.38;;;;;;;10.03;88.91;99796.06;5579232;31;34004;-57
2023/12/14 11:43:08;;;;;;;14.55;11.38;;;;;;;9.99;85.24;99795.84;5571037;31;33249;-57
2023/12/14 11:46:11;;;;;;;13.52;10.55;;;;;;;10.01;89.37;99798.25;5582270;31;33357;-57
2023/12/14 11:49:15;;;;;;;15.05;10.95;;;;;;;9.83;86.09;99787.28;5575294;31;33560;-57
2023/12/14 11:52:18;;;;;;;15.98;11.38;;;;;;;9.97;86.24;99797.25;5574855;31;32566;-57
2023/12/14 11:55:21;;;;;;;15.15;11.82;;;;;;;9.75;86.59;99798.59;5571538;31;33737;-57
2023/12/14 11:58:24;;;;;;;15.60;11.93;;;;;;;9.49;91.26;99802.69;5575633;31;33749;-58
2023/12/14 12:01:28;;;;;;;15.70;11.70;;;;;;;9.38;87.39;99797.47;5568191;31;33627;-57
2023/12/14 12:04:31;;;;;;;16.20;11.85;;;;;;;9.65;88.34;99804.88;5571109;31;34082;-57
2023/12/14 12:07:33;;;;;;;15.40;11.20;;;;;;;9.55;89.21;99810.37;5584201;31;33615;-58
2023/12/14 12:10:37;;;;;;;15.88;12.25;;;;;;;9.38;90.16;99810.84;5586704;31;33567;-57
2023/12/14 12:13:40;;;;;;;14.95;11.60;;;;;;;9.62;96.35;99805.47;5578960;31;33387;-57
2023/12/14 12:16:42;;;;;;;16.23;12.20;;;;;;;9.61;88.57;99809.22;5577514;31;33734;-57
2023/12/14 12:19:45;;;;;;;14.82;11.70;;;;;;;9.57;86.73;99810.06;5578881;31;33310;-57
2023/12/14 12:22:47;;;;;;;15.38;11.60;;;;;;;9.74;86.42;99826.47;5575694;31;34426;-57
2023/12/14 12:25:49;;;;;;;15.15;11.70;;;;;;;9.90;100.00;99824.38;5578891;31;33326;-57
2023/12/14 12:28:52;;;;;;;16.85;11.90;;;;;;;10.06;91.38;99830.31;5585716;31;34238;-57
2023/12/14 12:31:54;;;;;;;15.00;11.70;;;;;;;10.11;86.85;99831.03;5584068;31;33344;-57
2023/12/14 12:34:57;;;;;;;15.27;11.70;;;;;;;10.14;84.53;99840.37;5585091;31;33828;-57
2023/12/14 12:37:59;;;;;;;15.98;10.32;;;;;;;10.15;88.85;99843.84;5576856;31;33298;-57
2023/12/14 12:41:02;;;;;;;13.98;11.15;;;;;;;10.00;86.10;99856.37;5581899;31;34140;-57
2023/12/14 12:44:05;;;;;;;15.93;12.30;;;;;;;10.09;90.32;99853.84;5570119;31;34385;-57
2023/12/14 12:47:08;;;;;;;15.63;12.10;;;;;;;10.14;87.10;99861.81;5574076;31;34325;-57
2023/12/14 12:50:13;;;;;;;16.33;13.02;;;;;;;10.32;90.09;99857.53;5581856;31;33690;-57
2023/12/14 12:53:16;;;;;;;19.00;13.35;;;;;;;10.10;83.63;99868.84;5585625;31;33397;-58
2023/12/14 12:56:19;;;;;;;13.85;11.95;;;;;;;10.15;92.37;99873.31;5582823;31;34442;-57
2023/12/14 12:59:22;;;;;;;14.95;12.35;;;;;;;10.17;88.45;99877.31;5569814;31;33754;-57
2023/12/14 13:02:24;;;;;;;16.62;12.57;;;;;;;10.30;91.20;99890.00;5570143;31;33734;-57
2023/12/14 13:05:27;;;;;;;15.70;12.40;;;;;;;10.38;90.51;99895.78;5578051;31;33935;-57
2023/12/14 13:08:29;;;;;;;14.35;11.70;;;;;;;10.46;97.46;99897.81;5572181;31;34273;-58
2023/12/14 13:11:32;;;;;;;17.25;12.15;;;;;;;10.29;82.96;99899.09;5579958;31;35431;-57
2023/12/14 13:14:34;;;;;;;18.45;13.55;;;;;;;10.11;87.17;99897.19;5575135;31;33742;-57
2023/12/14 13:17:37;;;;;;;15.23;12.52;;;;;;;10.02;84.00;99897.03;5570817;31;33815;-58
2023/12/14 13:20:40;;;;;;;14.87;12.02;;;;;;;9.93;84.60;99898.75;5577396;31;33727;-57
2023/12/14 13:23:43;;;;;;;13.70;11.07;;;;;;;9.63;85.17;99908.78;5585782;31;34350;-58
2023/12/14 13:26:46;;;;;;;15.52;12.68;;;;;;;10.06;100.00;99903.41;5568263;31;34291;-57
2023/12/14 13:29:49;;;;;;;18.25;11.63;;;;;;;10.24;93.30;99909.09;5570182;32;33616;-57
2023/12/14 13:32:53;;;;;;;16.05;12.18;;;;;;;9.89;84.51;99911.13;5570087;32;33658;-57
2023/12/14 13:35:56;;;;;;;15.18;11.02;;;;;;;9.85;86.52;99924.28;5570677;32;33627;-57
2023/12/14 13:38:59;;;;;;;14.45;11.30;;;;;;;9.94;86.60;99924.47;5574009;31;33655;-57
2023/12/14 13:42:01;;;;;;;14.13;10.70;;;;;;;10.07;87.95;99925.66;5580286;31;34403;-58
2023/12/14 13:45:04;;;;;;;12.43;10.65;;;;;;;10.07;86.99;99931.00;5582936;31;34376;-57
2023/12/14 13:48:08;;;;;;;15.90;11.45;;;;;;;10.27;92.44;99940.69;5588577;31;33750;-57
2023/12/14 13:51:11;;;;;;;15.27;10.07;;;;;;;10.23;87.43;99939.63;5583584;31;33811;-57
2023/12/14 13:54:13;;;;;;;15.10;10.93;;;;;;;10.14;95.54;99947.50;5587688;31;33620;-58
2023/12/14 13:57:15;;;;;;;15.38;10.85;;;;;;;9.96;84.39;99949.06;5589807;31;33776;-57
2023/12/14 14:00:19;;;;;;;16.75;11.88;;;;;;;10.08;94.50;99965.53;5588261;31;34270;-57
2023/12/14 14:03:21;;;;;;;13.90;11.00;;;;;;;10.02;88.70;99965.88;5569920;32;33680;-57
2023/12/14 14:06:25;;;;;;;14.02;11.30;;;;;;;10.05;88.85;99982.16;5572726;31;34358;-57
2023/12/14 14:09:28;;;;;;;16.73;11.00;;;;;;;10.22;91.68;99987.03;5569845;32;33673;-57
2023/12/14 14:12:30;;;;;;;15.82;11.93;;;;;;;10.28;92.88;99991.28;5569835;32;33753;-57
2023/12/14 14:15:33;;;;;;;14.63;11.48;;;;;;;10.31;88.91;99992.59;5573382;31;33661;-58
2023/12/14 14:18:35;;;;;;;12.98;10.88;;;;;;;10.39;93.73;99993.84;5584771;31;34440;-57
2023/12/14 14:21:38;;;;;;;17.23;12.00;;;;;;;10.57;100.00;99995.75;5583322;31;33638;-57
2023/12/14 14:24:40;;;;;;;15.10;11.93;;;;;;;10.65;100.00;100002.34;5588152;31;33771;-57
2023/12/14 14:27:46;;;;;;;15.35;11.48;;;;;;;10.49;94.78;100013.25;5588658;31;34760;-57
2023/12/14 14:30:49;;;;;;;15.40;11.93;;;;;;;10.22;92.84;100008.47;5586286;31;34433;-58
2023/12/14 14:33:51;;;;;;;14.55;11.57;;;;;;;10.22;90.71;100021.88;5578432;31;33609;-57
2023/12/14 14:36:53;;;;;;;15.98;11.15;;;;;;;10.18;86.63;100020.84;5589273;31;34400;-58
2023/12/14 14:39:56;;;;;;;16.35;10.73;;;;;;;10.11;87.74;100028.44;5587210;31;33781;-58
2023/12/14 14:42:58;;;;;;;13.95;10.65;;;;;;;10.05;89.30;100034.94;5584612;31;34342;-58
2023/12/14 14:46:01;;;;;;;14.63;11.02;;;;;;;10.37;92.62;100028.19;5589316;31;33208;-58
2023/12/14 14:49:03;;;;;;;15.63;10.98;;;;;;;10.22;85.71;100031.78;5588082;31;33759;-57
2023/12/14 14:52:06;;;;;;;15.25;10.82;;;;;;;10.34;100.00;100034.91;5576937;31;34297;-58
2023/12/14 14:55:09;;;;;;;16.10;10.40;;;;;;;10.26;91.95;100040.87;5587772;31;33201;-57
2023/12/14 14:58:11;;;;;;;14.18;11.00;;;;;;;10.29;89.22;100059.84;5589247;31;33714;-58
2023/12/14 15:01:14;;;;;;;12.90;10.52;;;;;;;10.23;94.14;100058.31;5581389;31;33845;-57
2023/12/14 15:04:17;;;;;;;14.60;10.45;;;;;;;10.24;100.00;100054.53;5569298;32;33725;-57
2023/12/14 15:07:19;;;;;;;14.20;10.60;;;;;;;10.11;88.46;100063.25;5569181;32;33636;-58
2023/12/14 15:10:21;;;;;;;13.27;10.07;;;;;;;10.04;87.72;100065.47;5571803;31;33811;-58
2023/12/14 15:13:24;;;;;;;14.75;10.75;;;;;;;10.03;87.59;100077.25;5587560;31;34305;-58
2023/12/14 15:16:27;;;;;;;19.23;11.65;;;;;;;9.84;86.72;100071.84;5570485;31;34327;-58
2023/12/14 15:19:29;;;;;;;16.08;11.63;;;;;;;9.79;93.30;100077.22;5569389;32;34477;-58
2023/12/14 15:22:35;;;;;;;17.02;11.85;;;;;;;9.84;88.12;100091.37;5571694;31;34408;-57
2023/12/14 15:25:38;;;;;;;14.82;12.07;;;;;;;9.84;89.77;100088.69;5583713;31;33604;-57
2023/12/14 15:28:40;;;;;;;18.73;12.68;;;;;;;9.59;88.96;100099.62;5583854;31;34478;-58
2023/12/14 15:31:43;;;;;;;14.75;11.40;;;;;;;9.71;88.50;100109.97;5587087;31;33848;-57
2023/12/14 15:34:45;;;;;;;17.45;13.02;;;;;;;9.67;95.76;100111.59;5582476;31;33844;-58
2023/12/14 15:37:47;;;;;;;16.55;12.32;;;;;;;9.78;87.71;100124.63;5588951;31;33771;-57
2023/12/14 15:40:50;;;;;;;18.40;14.18;;;;;;;9.62;92.55;100128.50;5587869;31;33578;-58
2023/12/14 15:43:52;;;;;;;17.75;13.52;;;;;;;9.78;90.99;100129.19;5588600;31;33802;-57
2023/12/14 15:46:55;;;;;;;17.52;13.77;;;;;;;9.79;89.08;100141.47;5574135;31;33572;-57
2023/12/14 15:49:57;;;;;;;16.95;13.40;;;;;;;9.47;87.85;100145.47;5568011;32;33619;-58
2023/12/14 15:52:59;;;;;;;19.12;13.43;;;;;;;9.59;91.25;100143.22;5568907;32;33705;-58
2023/12/14 15:56:02;;;;;;;17.30;13.25;;;;;;;9.54;91.15;100148.63;5570281;31;33603;-57
2023/12/14 15:59:06;;;;;;;17.10;13.18;;;;;;;9.53;88.39;100144.34;5573115;31;33794;-57
2023/12/14 16:02:09;;;;;;;19.37;14.55;;;;;;;9.64;89.39;100156.59;5588652;31;33651;-58
2023/12/14 16:05:11;;;;;;;18.92;14.32;;;;;;;9.23;90.11;100150.69;5586069;31;33723;-57
2023/12/14 16:08:14;;;;;;;17.45;14.50;;;;;;;9.15;92.98;100156.63;5568501;32;34343;-57
2023/12/14 16:11:16;;;;;;;18.65;13.85;;;;;;;9.38;90.06;100165.87;5568740;32;33704;-57
2023/12/14 16:14:19;;;;;;;21.05;15.57;;;;;;;9.55;95.65;100165.47;5568644;32;33915;-57
2023/12/14 16:17:21;;;;;;;18.77;14.07;;;;;;;9.51;91.52;100175.94;5569686;31;32954;-57
2023/12/14 16:20:25;;;;;;;18.73;13.73;;;;;;;9.61;89.57;100175.09;5568900;32;34509;-57
2023/12/14 16:23:28;;;;;;;18.27;14.43;;;;;;;9.39;89.77;100183.50;5568923;32;33609;-57
2023/12/14 16:26:31;;;;;;;18.27;14.65;;;;;;;9.45;95.22;100185.06;5575028;31;33650;-58
2023/12/14 16:29:36;;;;;;;18.02;14.55;;;;;;;9.37;89.60;100189.16;5584789;31;34486;-57
2023/12/14 16:32:39;;;;;;;18.02;14.80;;;;;;;9.34;91.46;100197.72;5588062;31;34634;-57
2023/12/14 16:35:42;;;;;;;19.58;14.65;;;;;;;9.20;98.01;100204.72;5585941;31;32028;-57
